Weiner, AR (72479)

1:41 AM CDT on July 28, 2015 (GMT -0500)
Boward and Wofford | | Change Station
CLOSE
Current Station
Personal Weather Station
Location: Waldenburg, AR
Elevation: 243 ft
Nearby Weather Stations
Active Advisory: Heat Advisory Active Notice: Public Information Statement

Elev 243 ft 35.57 °N, 90.90 °W | Updated 7 minutes ago

Clear
Clear
79.5 °F
Feels Like 85 °F
N
0.0
Wind Variable Wind from East
Gusts 0.0 mph

Today
High -- | Low -- °F
--% Chance of Precip.
Yesterday
High -- | Low -- °F
Precip. -- in
6:08 AM 8:11 PM
Waxing Gibbous, 87% visible
Pressure 29.94 in
Visibility 10.0 miles
Clouds Clear
Heat Index 85 °F
Dew Point 78 °F
Humidity 96%
Rainfall 0.00 in
Snow Depth Not available.
UV 0 out of 12
Pollen 4.70 out of 12
Air Quality Not available.
Flu Activity Not available.
METAR KM19 280556Z AUTO 00000KT 10SM CLR 28/27 A2995 RMK AO2 50001 T02770266 10322 20272 SLP137

More Conditions Fewer Conditions

Pressure 29.94 in
Visibility 10.0 miles
Clouds Clear
Heat Index 85 °F
Dew Point 78 °F
Humidity 96%
Rainfall 0.00 in
Snow Depth Not available.
UV 0 out of 12
Pollen 4.70 out of 12
Air Quality Not available.
Flu Activity Not available.
METAR KM19 280556Z AUTO 00000KT 10SM CLR 28/27 A2995 RMK AO2 50001 T02770266 10322 20272 SLP137

More Conditions Fewer Conditions

10-Day Weather Forecast

×

Almanac

Astronomy

Jul. 28, 2015 Rise Set
Actual Time
Civil Twilight
Nautical Twilight
Astronomical Twilight
Moon
Length of Visible Light
Length of Day
Tomorrow will be .
, % of the Moon is Illuminated

Today's Extremes

State Highs State Lows

Community

WunderPhotos

Upload Photos

1,841,796 photos uploaded!

WunderBlogs® & News

Nearby

Air Quality

  Air Quality AQ Index Pollutant
Not available.

Snow Depth

Station Depth Elevation

Earthquake Activity

City Distance Mag. Time & Date
Minimum magnitude displayed is 2.5.

Coastal Water Temperatures

Place Temperature

Stations

Nearby Weather Stations

Station Location Temp. Windchill Dew Point Humidity Wind Precip. Elev Updated Type
                   
Heat Advisory
Statement as of 3:27 PM CDT on July 27, 2015

... Heat advisory remains in effect until 8 PM CDT Tuesday...

* heat index readings... between 105 and 110 degrees. Overnight
low temperatures from the middle 70s to lower 80s will provide
little relief for those without air conditioning.

* Timing... hottest part of the day between 11 am and 8 PM.
Uncomfortably warm and humid through the rest of the period.

* Impacts... increased risk of heat-related illnesses including
heat exhaustion and heat stroke if you do not take the proper
precautions.

Precautionary/preparedness actions...

A heat advisory means that a period of hot temperatures is
expected. The combination of hot temperatures and high humidity
will combine to create a situation in which heat illnesses are
possible. Drink plenty of fluids... stay in an air-conditioned
room... stay out of the sun... and check up on relatives and
neighbors.